Time,TemperatureF,DewpointF,PressureIn,WindDirection,WindDirectionDegrees,WindSpeedMPH,WindSpeedGustMPH,Humidity,HourlyPrecipIn,Conditions,Clouds,dailyrainin,SoftwareType,DateUTC
2013-01-15 00:00:00,4.0,-99.9,-100.00,WNW,292,6.0,7.0,-999,-99.99,,,-99.99,,2013-01-15 07:00:00,
2013-01-15 00:53:00,4.0,-99.9,-100.00,WNW,292,6.0,7.0,-999,-99.99,,,-99.99,,2013-01-15 07:53:00,
2013-01-15 01:00:00,4.0,-99.9,-100.00,NW,316,0.0,1.0,-999,-99.99,,,-99.99,,2013-01-15 08:00:00,
2013-01-15 01:53:00,4.0,-99.9,-100.00,NW,316,0.0,1.0,-999,-99.99,,,-99.99,,2013-01-15 08:53:00,
2013-01-15 02:00:00,2.0,-99.9,-100.00,WNW,294,4.0,5.0,-999,-99.99,,,-99.99,,2013-01-15 09:00:00,
2013-01-15 02:53:00,2.0,-99.9,-100.00,WNW,294,4.0,5.0,-999,-99.99,,,-99.99,,2013-01-15 09:53:00,
2013-01-15 03:00:00,2.0,-99.9,-100.00,West,274,2.0,4.0,-999,-99.99,,,-99.99,,2013-01-15 10:00:00,
2013-01-15 03:52:00,2.0,-99.9,-100.00,West,274,2.0,4.0,-999,-99.99,,,-99.99,,2013-01-15 10:52:00,
2013-01-15 04:00:00,2.0,-99.9,-100.00,West,273,5.0,7.0,-999,-99.99,,,-99.99,,2013-01-15 11:00:00,
2013-01-15 04:53:00,2.0,-99.9,-100.00,West,273,5.0,7.0,-999,-99.99,,,-99.99,,2013-01-15 11:53:00,
2013-01-15 05:00:00,2.0,-99.9,-100.00,NW,306,4.0,5.0,-999,-99.99,,,-99.99,,2013-01-15 12:00:00,
2013-01-15 05:53:00,2.0,-99.9,-100.00,NW,306,4.0,5.0,-999,-99.99,,,-99.99,,2013-01-15 12:53:00,
2013-01-15 07:00:00,2.0,-99.9,-100.00,West,276,6.0,12.0,-999,-99.99,,,-99.99,,2013-01-15 14:00:00,
2013-01-15 07:54:00,2.0,-99.9,-100.00,West,276,6.0,12.0,-999,-99.99,,,-99.99,,2013-01-15 14:54:00,
2013-01-15 08:00:00,4.0,-99.9,-100.00,West,274,9.0,11.0,-999,-99.99,,,-99.99,,2013-01-15 15:00:00,
2013-01-15 08:53:00,4.0,-99.9,-100.00,West,274,9.0,11.0,-999,-99.99,,,-99.99,,2013-01-15 15:53:00,
2013-01-15 09:00:00,7.0,-99.9,-100.00,West,272,8.0,18.0,-999,-99.99,,,-99.99,,2013-01-15 16:00:00,
2013-01-15 09:54:00,7.0,-99.9,-100.00,West,272,8.0,18.0,-999,-99.99,,,-99.99,,2013-01-15 16:54:00,
2013-01-15 10:00:00,13.0,-99.9,-100.00,West,272,10.0,14.0,-999,-99.99,,,-99.99,,2013-01-15 17:00:00,
2013-01-15 10:53:00,13.0,-99.9,-100.00,West,272,10.0,14.0,-999,-99.99,,,-99.99,,2013-01-15 17:53:00,
2013-01-15 11:00:00,18.0,-99.9,-100.00,West,279,12.0,15.0,-999,-99.99,,,-99.99,,2013-01-15 18:00:00,
2013-01-15 11:54:00,18.0,-99.9,-100.00,West,279,12.0,15.0,-999,-99.99,,,-99.99,,2013-01-15 18:54:00,
2013-01-15 12:00:00,22.0,-99.9,-100.00,WNW,296,15.0,19.0,-999,-99.99,,,-99.99,,2013-01-15 19:00:00,
2013-01-15 12:53:00,22.0,-99.9,-100.00,WNW,296,15.0,19.0,-999,-99.99,,,-99.99,,2013-01-15 19:53:00,
2013-01-15 13:00:00,25.0,-99.9,-100.00,WNW,282,6.0,13.0,-999,-99.99,,,-99.99,,2013-01-15 20:00:00,
2013-01-15 13:53:00,25.0,-99.9,-100.00,WNW,282,6.0,13.0,-999,-99.99,,,-99.99,,2013-01-15 20:53:00,
2013-01-15 14:00:00,27.0,-99.9,-100.00,West,275,18.0,19.0,-999,-99.99,,,-99.99,,2013-01-15 21:00:00,
2013-01-15 14:53:00,27.0,-99.9,-100.00,West,275,18.0,19.0,-999,-99.99,,,-99.99,,2013-01-15 21:53:00,
2013-01-15 15:00:00,29.0,-99.9,-100.00,WNW,285,14.0,17.0,-999,-99.99,,,-99.99,,2013-01-15 22:00:00,
2013-01-15 15:53:00,29.0,-99.9,-100.00,WNW,285,14.0,17.0,-999,-99.99,,,-99.99,,2013-01-15 22:53:00,
2013-01-15 16:00:00,29.0,-99.9,-100.00,WNW,299,8.0,10.0,-999,-99.99,,,-99.99,,2013-01-15 23:00:00,
2013-01-15 16:53:00,29.0,-99.9,-100.00,WNW,299,8.0,10.0,-999,-99.99,,,-99.99,,2013-01-15 23:53:00,
2013-01-15 17:00:00,25.0,-99.9,-100.00,WNW,295,9.0,10.0,-999,-99.99,,,-99.99,,2013-01-16 00:00:00,
2013-01-15 17:53:00,25.0,-99.9,-100.00,WNW,295,9.0,10.0,-999,-99.99,,,-99.99,,2013-01-16 00:53:00,
2013-01-15 18:00:00,25.0,-99.9,-100.00,WNW,294,9.0,9.0,-999,-99.99,,,-99.99,,2013-01-16 01:00:00,
2013-01-15 18:53:00,25.0,-99.9,-100.00,WNW,294,9.0,9.0,-999,-99.99,,,-99.99,,2013-01-16 01:53:00,
2013-01-15 19:00:00,25.0,-99.9,-100.00,West,274,7.0,8.0,-999,-99.99,,,-99.99,,2013-01-16 02:00:00,
2013-01-15 19:53:00,25.0,-99.9,-100.00,West,274,7.0,8.0,-999,-99.99,,,-99.99,,2013-01-16 02:53:00,
2013-01-15 20:00:00,27.0,-99.9,-100.00,WNW,289,8.0,9.0,-999,-99.99,,,-99.99,,2013-01-16 03:00:00,
2013-01-15 20:53:00,27.0,-99.9,-100.00,WNW,289,8.0,9.0,-999,-99.99,,,-99.99,,2013-01-16 03:53:00,
2013-01-15 21:00:00,31.0,-99.9,-100.00,West,270,10.0,11.0,-999,-99.99,,,-99.99,,2013-01-16 04:00:00,
2013-01-15 21:53:00,31.0,-99.9,-100.00,West,270,10.0,11.0,-999,-99.99,,,-99.99,,2013-01-16 04:53:00,
2013-01-15 22:00:00,32.0,-99.9,-100.00,NW,318,21.0,25.0,-999,-99.99,,,-99.99,,2013-01-16 05:00:00,
2013-01-15 22:53:00,32.0,-99.9,-100.00,NW,318,21.0,25.0,-999,-99.99,,,-99.99,,2013-01-16 05:53:00,
2013-01-15 23:00:00,31.0,-99.9,-100.00,WNW,299,12.0,13.0,-999,-99.99,,,-99.99,,2013-01-16 06:00:00,
2013-01-15 23:53:00,31.0,-99.9,-100.00,WNW,299,12.0,13.0,-999,-99.99,,,-99.99,,2013-01-16 06:53:00,